createdAt,value
2018-06-11T00:00:54.122Z,18.90
2018-06-11T00:01:54.129Z,18.50
2018-06-11T00:02:54.106Z,18.60
2018-06-11T00:03:54.092Z,19.30
2018-06-11T00:04:54.084Z,18.80
2018-06-11T00:05:54.074Z,18.70
2018-06-11T00:06:54.077Z,18.70
2018-06-11T00:07:54.063Z,18.70
2018-06-11T00:08:54.042Z,18.40
2018-06-11T00:09:54.030Z,19.20
2018-06-11T00:10:54.029Z,19.40
2018-06-11T00:11:54.036Z,18.80
2018-06-11T00:12:54.000Z,19.10
2018-06-11T00:13:54.005Z,18.80
2018-06-11T00:14:53.969Z,18.60
2018-06-11T00:15:53.963Z,18.30
2018-06-11T00:16:53.952Z,18.50
2018-06-11T00:17:53.956Z,19.10
2018-06-11T00:18:53.954Z,18.50
2018-06-11T00:19:53.946Z,19.10
2018-06-11T00:20:53.916Z,18.70
2018-06-11T00:21:53.911Z,18.30
2018-06-11T00:22:53.889Z,18.30
2018-06-11T00:23:53.892Z,18.50
2018-06-11T00:24:53.894Z,18.20
2018-06-11T00:25:53.880Z,18.80
2018-06-11T00:26:53.843Z,18.90
2018-06-11T00:27:53.843Z,18.50
2018-06-11T00:28:53.831Z,19.20
2018-06-11T00:29:53.834Z,18.80
2018-06-11T00:30:53.835Z,18.30
2018-06-11T00:31:53.797Z,18.30
2018-06-11T00:32:53.798Z,18.80
2018-06-11T00:33:53.754Z,18.00
2018-06-11T00:34:53.751Z,19.30
2018-06-11T00:35:53.766Z,18.40
2018-06-11T00:36:53.727Z,18.60
2018-06-11T00:37:53.723Z,19.40
2018-06-11T00:38:53.703Z,19.00
2018-06-11T00:39:53.700Z,18.60
2018-06-11T00:40:53.713Z,18.80
2018-06-11T00:41:53.701Z,19.20
2018-06-11T00:42:53.655Z,19.00
2018-06-11T00:43:53.640Z,19.00
2018-06-11T00:44:53.637Z,19.20
2018-06-11T00:45:53.616Z,19.10
2018-06-11T00:46:53.604Z,18.70
2018-06-11T00:47:53.609Z,19.30
2018-06-11T00:48:53.582Z,19.60
2018-06-11T00:49:53.575Z,18.80
2018-06-11T00:50:53.576Z,19.20
2018-06-11T00:51:53.565Z,19.10
2018-06-11T00:52:53.540Z,19.20
2018-06-11T00:53:53.527Z,19.40
2018-06-11T00:54:53.514Z,19.40
2018-06-11T00:55:53.503Z,20.00
2018-06-11T00:56:53.506Z,19.40
2018-06-11T00:57:53.480Z,20.00
2018-06-11T00:58:53.464Z,19.60
2018-06-11T00:59:53.452Z,19.40
2018-06-11T01:00:53.444Z,20.50
2018-06-11T01:01:53.428Z,19.30
2018-06-11T01:02:53.438Z,20.10
2018-06-11T01:03:53.413Z,19.50
2018-06-11T01:04:53.396Z,20.20
2018-06-11T01:05:53.390Z,19.60
2018-06-11T01:06:53.374Z,19.60
2018-06-11T01:07:53.364Z,19.90
2018-06-11T01:08:53.369Z,21.00
2018-06-11T01:09:53.340Z,20.50
2018-06-11T01:10:53.329Z,19.70
2018-06-11T01:11:53.335Z,19.90
2018-06-11T01:12:53.322Z,20.00
2018-06-11T01:13:53.291Z,20.40
2018-06-11T01:14:53.283Z,21.20
2018-06-11T01:15:53.270Z,20.40
2018-06-11T01:16:53.258Z,19.90
2018-06-11T01:17:53.242Z,20.70
2018-06-11T01:18:53.266Z,20.50
2018-06-11T01:19:53.227Z,20.70
2018-06-11T01:20:53.209Z,20.60
2018-06-11T01:21:53.207Z,20.80
2018-06-11T01:22:53.190Z,20.30
2018-06-11T01:23:53.197Z,19.60
2018-06-11T01:24:53.184Z,20.60
2018-06-11T01:25:53.151Z,20.20
2018-06-11T01:26:53.147Z,20.80
2018-06-11T01:27:53.131Z,20.40
2018-06-11T01:28:53.121Z,20.70
2018-06-11T01:29:53.125Z,20.50
2018-06-11T01:30:53.096Z,20.40
2018-06-11T01:31:53.084Z,20.10
2018-06-11T01:32:53.085Z,21.20
2018-06-11T01:33:53.070Z,21.30
2018-06-11T01:34:53.086Z,21.30
2018-06-11T01:35:53.038Z,21.30
2018-06-11T01:36:53.028Z,20.80
2018-06-11T01:37:53.013Z,20.80
2018-06-11T01:38:52.997Z,21.30
2018-06-11T01:39:53.000Z,21.60
2018-06-11T01:40:52.994Z,20.70
2018-06-11T01:41:52.970Z,21.50
2018-06-11T01:42:52.952Z,21.20
2018-06-11T01:43:52.951Z,20.50
2018-06-11T01:44:52.929Z,20.50
2018-06-11T01:45:52.934Z,20.50
2018-06-11T01:46:52.912Z,20.70
2018-06-11T01:47:52.895Z,22.10
2018-06-11T01:48:52.885Z,20.70
2018-06-11T01:49:52.871Z,20.80
2018-06-11T01:50:52.878Z,21.10
2018-06-11T01:51:52.864Z,21.10
2018-06-11T01:52:52.837Z,21.50
2018-06-11T01:53:52.822Z,21.80
2018-06-11T01:54:52.824Z,21.70
2018-06-11T01:55:52.801Z,21.60
2018-06-11T01:56:52.807Z,21.80
2018-06-11T01:57:52.777Z,21.40
2018-06-11T01:58:52.766Z,21.80
2018-06-11T01:59:52.773Z,21.70
2018-06-11T02:00:52.749Z,21.40
2018-06-11T02:01:52.748Z,21.10
2018-06-11T02:02:52.718Z,21.20
2018-06-11T02:03:52.716Z,22.00
2018-06-11T02:04:52.695Z,22.00
2018-06-11T02:05:52.681Z,20.90
2018-06-11T02:06:52.695Z,21.50
2018-06-11T02:07:52.656Z,21.40
2018-06-11T02:08:52.648Z,21.40
2018-06-11T02:09:52.638Z,22.20
2018-06-11T02:10:52.627Z,21.50
2018-06-11T02:11:52.614Z,21.90
2018-06-11T02:12:52.618Z,22.20
2018-06-11T02:13:52.587Z,21.60
2018-06-11T02:14:52.577Z,21.70
2018-06-11T02:15:52.565Z,22.20
2018-06-11T02:16:52.554Z,22.20
2018-06-11T02:17:52.561Z,22.10
2018-06-11T02:18:52.541Z,22.20
2018-06-11T02:19:52.517Z,22.00
2018-06-11T02:20:52.503Z,22.70
2018-06-11T02:21:52.504Z,22.20
2018-06-11T02:22:52.482Z,21.90
2018-06-11T02:23:52.489Z,22.70
2018-06-11T02:24:52.456Z,22.70
2018-06-11T02:25:52.449Z,22.10
2018-06-11T02:26:52.434Z,22.20
2018-06-11T02:27:52.424Z,22.70
2018-06-11T02:28:52.425Z,22.80
2018-06-11T02:29:52.396Z,22.30
2018-06-11T02:30:52.396Z,22.30
2018-06-11T02:31:52.371Z,22.20
2018-06-11T02:32:52.360Z,22.30
2018-06-11T02:33:52.364Z,22.20
2018-06-11T02:34:52.336Z,22.60
2018-06-11T02:35:52.323Z,22.00
2018-06-11T02:36:52.314Z,22.10
2018-06-11T02:37:52.300Z,22.10
2018-06-11T02:38:52.297Z,22.50
2018-06-11T02:39:52.292Z,22.00
2018-06-11T02:40:52.264Z,22.40
2018-06-11T02:41:52.260Z,22.00
2018-06-11T02:42:52.253Z,22.40
2018-06-11T02:43:52.255Z,22.20
2018-06-11T02:44:52.231Z,21.60
2018-06-11T02:45:52.229Z,21.90
2018-06-11T02:46:52.189Z,21.80
2018-06-11T02:47:52.177Z,21.90
2018-06-11T02:48:52.160Z,21.00
2018-06-11T02:49:52.154Z,21.60
2018-06-11T02:50:52.137Z,22.50
2018-06-11T02:51:52.142Z,21.90
2018-06-11T02:52:52.150Z,22.30
2018-06-11T02:53:52.100Z,21.60
2018-06-11T02:54:52.110Z,21.70
2018-06-11T02:55:52.101Z,22.60
2018-06-11T02:56:52.084Z,23.00
2018-06-11T02:57:52.052Z,22.40
2018-06-11T02:58:52.043Z,22.40
2018-06-11T02:59:52.036Z,22.70
2018-06-11T03:00:52.020Z,22.50
2018-06-11T03:01:52.020Z,22.80
2018-06-11T03:02:51.989Z,23.00
2018-06-11T03:03:51.985Z,22.80
2018-06-11T03:04:51.972Z,22.60
2018-06-11T03:05:51.966Z,23.60
2018-06-11T03:06:51.962Z,23.40
2018-06-11T03:07:51.931Z,23.50
2018-06-11T03:08:51.920Z,23.50
2018-06-11T03:09:51.909Z,23.60
2018-06-11T03:10:51.890Z,23.60
2018-06-11T03:11:51.902Z,23.70
2018-06-11T03:12:51.874Z,22.70
2018-06-11T03:13:51.864Z,23.90
2018-06-11T03:14:51.847Z,23.40
2018-06-11T03:15:51.832Z,23.50
2018-06-11T03:16:51.832Z,23.10
2018-06-11T03:17:51.805Z,23.60
2018-06-11T03:18:51.797Z,23.20
2018-06-11T03:19:51.797Z,24.10
2018-06-11T03:20:51.769Z,23.50
2018-06-11T03:21:51.760Z,24.00
2018-06-11T03:22:51.745Z,23.60
2018-06-11T03:23:51.734Z,24.30
2018-06-11T03:24:51.723Z,24.10
2018-06-11T03:25:51.730Z,24.30
2018-06-11T03:26:51.693Z,24.50
2018-06-11T03:27:51.682Z,23.90
2018-06-11T03:28:51.669Z,24.10
2018-06-11T03:29:51.656Z,23.30
2018-06-11T03:30:51.662Z,23.50
2018-06-11T03:31:51.631Z,23.40
2018-06-11T03:32:51.615Z,24.50
2018-06-11T03:33:51.606Z,24.30
2018-06-11T03:34:51.589Z,22.60
2018-06-11T03:35:51.608Z,23.80
2018-06-11T03:36:51.567Z,23.10
2018-06-11T03:37:51.558Z,23.60
2018-06-11T03:38:51.550Z,23.10
2018-06-11T03:39:51.528Z,23.30
2018-06-11T03:40:51.524Z,23.40
2018-06-11T03:41:51.524Z,23.40
2018-06-11T03:42:51.504Z,23.40
2018-06-11T03:43:53.244Z,23.30
2018-06-11T03:44:51.461Z,22.40
2018-06-11T03:45:51.482Z,22.50
2018-06-11T03:46:51.440Z,22.70
2018-06-11T03:47:51.432Z,21.70
2018-06-11T03:48:51.440Z,22.60
2018-06-11T03:49:51.412Z,21.90
2018-06-11T03:50:51.413Z,22.40
2018-06-11T03:51:51.409Z,22.40
2018-06-11T03:52:53.249Z,22.30
2018-06-11T03:53:51.360Z,21.40
2018-06-11T03:54:51.339Z,22.00
2018-06-11T03:55:51.342Z,21.60
2018-06-11T03:56:51.357Z,22.30
2018-06-11T03:57:52.250Z,21.50
2018-06-11T03:58:51.315Z,21.70
2018-06-11T03:59:51.338Z,21.80
2018-06-11T04:00:51.298Z,20.90
2018-06-11T04:01:51.272Z,20.70
2018-06-11T04:02:51.258Z,20.50
2018-06-11T04:03:51.257Z,20.50
2018-06-11T04:04:51.269Z,20.30
2018-06-11T04:05:51.240Z,21.30
2018-06-11T04:06:51.194Z,20.90
2018-06-11T04:07:51.194Z,20.00
2018-06-11T04:08:51.210Z,20.50
2018-06-11T04:09:52.367Z,20.30
2018-06-11T04:10:51.263Z,19.70
2018-06-11T04:11:51.150Z,19.80
2018-06-11T04:12:51.169Z,19.80
2018-06-11T04:13:51.128Z,19.30
2018-06-11T04:14:51.093Z,19.70
2018-06-11T04:15:51.102Z,19.40
2018-06-11T04:16:51.106Z,19.30
2018-06-11T04:17:51.075Z,19.70
2018-06-11T04:18:51.085Z,19.40
2018-06-11T04:19:51.072Z,19.00
2018-06-11T04:20:51.033Z,18.50
2018-06-11T04:21:51.024Z,19.20
2018-06-11T04:22:50.995Z,19.50
2018-06-11T04:23:50.988Z,19.00
2018-06-11T04:24:50.964Z,19.20
2018-06-11T04:25:50.952Z,18.70
2018-06-11T04:26:50.942Z,18.60
2018-06-11T04:27:50.955Z,18.20
2018-06-11T04:28:50.909Z,17.90
2018-06-11T04:29:51.755Z,19.10
2018-06-11T04:30:50.912Z,18.10
2018-06-11T04:31:53.758Z,18.30
2018-06-11T04:32:50.981Z,18.00
2018-06-11T04:33:50.939Z,19.00
2018-06-11T04:34:50.887Z,18.10
2018-06-11T04:35:50.839Z,18.00
2018-06-11T04:36:50.819Z,17.40
2018-06-11T04:37:50.816Z,18.00
2018-06-11T04:38:50.829Z,18.00
2018-06-11T04:39:50.802Z,18.30
2018-06-11T04:40:50.796Z,17.70
2018-06-11T04:41:50.759Z,18.10
2018-06-11T04:42:50.750Z,17.70
2018-06-11T04:43:50.728Z,17.60
2018-06-11T04:44:50.747Z,17.90
2018-06-11T04:45:50.700Z,17.60
2018-06-11T04:46:50.699Z,17.80
2018-06-11T04:47:50.705Z,17.90
2018-06-11T04:48:50.668Z,17.50
2018-06-11T04:49:50.712Z,17.00
2018-06-11T04:50:50.630Z,16.80
2018-06-11T04:51:50.620Z,16.40
2018-06-11T04:52:50.626Z,17.20
2018-06-11T04:53:50.591Z,17.00
2018-06-11T04:54:50.596Z,17.10
2018-06-11T04:55:50.590Z,16.80
2018-06-11T04:56:50.550Z,17.30
2018-06-11T04:57:50.570Z,16.60
2018-06-11T04:58:50.563Z,16.90
2018-06-11T04:59:50.517Z,16.40
2018-06-11T05:00:50.516Z,16.50
2018-06-11T05:01:50.503Z,16.50
2018-06-11T05:02:50.482Z,16.50
2018-06-11T05:03:50.483Z,16.70
2018-06-11T05:04:50.470Z,17.10
2018-06-11T05:05:50.443Z,17.00
2018-06-11T05:06:50.443Z,17.90
2018-06-11T05:07:50.419Z,18.80
2018-06-11T05:08:50.412Z,19.50
2018-06-11T05:09:50.390Z,19.60
2018-06-11T05:10:50.379Z,19.90
2018-06-11T05:11:50.382Z,20.20
2018-06-11T05:12:50.350Z,20.20
2018-06-11T05:13:50.340Z,20.30
2018-06-11T05:14:50.344Z,20.40
2018-06-11T05:15:50.319Z,20.40
2018-06-11T05:16:50.497Z,20.50
2018-06-11T05:17:50.324Z,20.70
2018-06-11T05:18:50.277Z,20.50
2018-06-11T05:19:50.267Z,20.50
2018-06-11T05:20:50.261Z,21.30
2018-06-11T05:21:50.241Z,21.50
2018-06-11T05:22:50.231Z,21.20
2018-06-11T05:23:50.245Z,21.50
2018-06-11T05:24:50.200Z,20.60
2018-06-11T05:25:50.190Z,21.30
2018-06-11T05:26:50.178Z,20.90
2018-06-11T05:27:50.165Z,20.70
2018-06-11T05:28:50.211Z,21.60
2018-06-11T05:29:50.158Z,20.60
2018-06-11T05:30:50.128Z,20.60
2018-06-11T05:31:50.129Z,20.60
2018-06-11T05:32:50.106Z,21.50
2018-06-11T05:33:50.123Z,20.70
2018-06-11T05:34:50.682Z,20.50
2018-06-11T05:35:50.075Z,20.80
2018-06-11T05:36:50.056Z,20.50
2018-06-11T05:37:50.044Z,20.20
2018-06-11T05:38:50.038Z,20.00
2018-06-11T05:39:50.020Z,19.80
2018-06-11T05:40:50.024Z,19.20
2018-06-11T05:41:49.998Z,20.00
2018-06-11T05:42:49.987Z,20.20
2018-06-11T05:43:49.980Z,19.50
2018-06-11T05:44:49.962Z,19.50
2018-06-11T05:45:49.968Z,19.60
2018-06-11T05:46:49.939Z,19.50
2018-06-11T05:47:49.936Z,19.90
2018-06-11T05:48:49.914Z,19.50
2018-06-11T05:49:49.902Z,19.40
2018-06-11T05:50:49.918Z,19.00
2018-06-11T05:51:49.894Z,19.50
2018-06-11T05:52:49.869Z,19.80
2018-06-11T05:53:49.859Z,19.10
2018-06-11T05:54:49.850Z,18.90
2018-06-11T05:55:49.835Z,19.20
2018-06-11T05:56:49.854Z,19.30
2018-06-11T05:57:49.809Z,19.70
2018-06-11T05:58:49.804Z,19.90
2018-06-11T05:59:49.788Z,20.70
2018-06-11T06:00:49.782Z,20.50
2018-06-11T06:01:49.789Z,20.20
2018-06-11T06:02:49.752Z,20.80
2018-06-11T06:03:49.745Z,20.70
2018-06-11T06:04:49.732Z,20.10
2018-06-11T06:05:49.720Z,20.80
2018-06-11T06:06:49.704Z,20.30
2018-06-11T06:07:49.705Z,19.90
2018-06-11T06:08:49.723Z,20.60
2018-06-11T06:09:49.677Z,20.60
2018-06-11T06:10:49.655Z,20.50
2018-06-11T06:11:49.650Z,20.60
2018-06-11T06:12:49.653Z,21.20
2018-06-11T06:13:49.626Z,20.60
2018-06-11T06:14:49.610Z,20.50
2018-06-11T06:15:49.599Z,20.30
2018-06-11T06:16:49.591Z,20.60
2018-06-11T06:17:49.578Z,20.60
2018-06-11T06:18:49.588Z,21.00
2018-06-11T06:19:49.555Z,21.00
2018-06-11T06:20:49.544Z,21.30
2018-06-11T06:21:49.536Z,21.50
2018-06-11T06:22:49.534Z,21.80
2018-06-11T06:23:49.524Z,21.40
2018-06-11T06:24:49.507Z,21.40
2018-06-11T06:25:49.492Z,20.30
2018-06-11T06:26:49.497Z,19.90
2018-06-11T06:27:49.467Z,20.40
2018-06-11T06:28:49.467Z,20.20
2018-06-11T06:29:49.446Z,20.50
2018-06-11T06:30:49.432Z,20.00
2018-06-11T06:31:49.417Z,20.80
2018-06-11T06:32:49.407Z,19.50
2018-06-11T06:33:49.412Z,19.90
2018-06-11T06:34:49.475Z,19.00
2018-06-11T06:35:49.375Z,18.90
2018-06-11T06:36:49.366Z,19.40
2018-06-11T06:37:49.359Z,19.60
2018-06-11T06:38:49.357Z,19.20
2018-06-11T06:39:49.330Z,19.10
2018-06-11T06:40:49.337Z,20.20
2018-06-11T06:41:49.304Z,19.10
2018-06-11T06:42:49.293Z,19.40
2018-06-11T06:43:49.284Z,19.50
2018-06-11T06:44:49.276Z,19.10
2018-06-11T06:45:49.291Z,19.30
2018-06-11T06:46:49.247Z,19.10
2018-06-11T06:47:49.237Z,19.30
2018-06-11T06:48:49.246Z,18.70
2018-06-11T06:49:49.227Z,18.90
2018-06-11T06:50:49.204Z,18.80
2018-06-11T06:51:49.212Z,19.50
2018-06-11T06:52:49.185Z,19.60
2018-06-11T06:53:49.172Z,19.30
2018-06-11T06:54:49.162Z,19.90
2018-06-11T06:55:49.150Z,19.50
2018-06-11T06:56:49.169Z,19.30
2018-06-11T06:57:49.127Z,19.10
2018-06-11T06:58:49.117Z,19.00
2018-06-11T06:59:49.108Z,19.00
2018-06-11T07:00:49.095Z,18.80
2018-06-11T07:01:49.083Z,19.10
2018-06-11T07:02:49.092Z,19.90
2018-06-11T07:03:49.060Z,18.80
2018-06-11T07:04:49.050Z,18.20
2018-06-11T07:05:49.036Z,18.50
2018-06-11T07:06:49.033Z,18.20
2018-06-11T07:07:49.030Z,19.80
2018-06-11T07:08:49.026Z,19.40
2018-06-11T07:09:48.997Z,19.70
2018-06-11T07:10:48.982Z,19.00
2018-06-11T07:11:48.980Z,19.20
2018-06-11T07:12:48.971Z,18.90
2018-06-11T07:13:48.969Z,18.90
2018-06-11T07:14:48.954Z,19.30
2018-06-11T07:15:48.936Z,19.10
2018-06-11T07:16:48.927Z,18.90
2018-06-11T07:17:48.928Z,17.90
2018-06-11T07:18:48.904Z,19.10
2018-06-11T07:19:48.888Z,18.40
2018-06-11T07:20:48.880Z,17.70
2018-06-11T07:21:48.873Z,18.30
2018-06-11T07:22:48.864Z,17.20
2018-06-11T07:23:48.863Z,18.30
2018-06-11T07:24:48.852Z,18.20
2018-06-11T07:25:48.833Z,18.10
2018-06-11T07:26:48.820Z,17.60
2018-06-11T07:27:48.806Z,17.70
2018-06-11T07:28:48.825Z,17.50
2018-06-11T07:29:48.791Z,16.80
2018-06-11T07:30:48.776Z,17.40
2018-06-11T07:31:48.773Z,16.60
2018-06-11T07:32:48.758Z,16.40
2018-06-11T07:33:48.747Z,16.60
2018-06-11T07:34:48.761Z,15.70
2018-06-11T07:35:48.729Z,16.50
2018-06-11T07:36:48.717Z,17.30
2018-06-11T07:37:48.712Z,17.00
2018-06-11T07:38:48.718Z,16.90
2018-06-11T07:39:48.696Z,16.90
2018-06-11T07:40:48.681Z,16.60
2018-06-11T07:41:48.666Z,16.30
2018-06-11T07:42:48.656Z,15.80
2018-06-11T07:43:48.644Z,15.60
2018-06-11T07:44:48.662Z,15.60
2018-06-11T07:45:48.623Z,15.90
2018-06-11T07:46:48.612Z,15.60
2018-06-11T07:47:48.608Z,15.30
2018-06-11T07:50:20.647Z,15.10
2018-06-11T07:51:20.619Z,14.70
2018-06-11T07:52:20.612Z,15.10
2018-06-11T07:53:20.618Z,14.30
2018-06-11T07:54:20.600Z,14.40
2018-06-11T07:55:20.594Z,14.50
2018-06-11T07:56:20.577Z,13.70
2018-06-11T07:57:20.566Z,13.50
2018-06-11T07:58:20.574Z,13.80
2018-06-11T07:59:20.540Z,14.10
2018-06-11T08:00:20.545Z,14.30
2018-06-11T08:01:20.543Z,14.70
2018-06-11T08:02:20.511Z,14.70
2018-06-11T08:03:20.520Z,14.50
2018-06-11T08:04:20.500Z,14.50
2018-06-11T08:05:20.484Z,13.70
2018-06-11T08:06:20.476Z,14.90
2018-06-11T08:07:20.462Z,14.70
2018-06-11T08:08:20.455Z,14.50
2018-06-11T08:09:20.460Z,14.70
2018-06-11T08:10:20.450Z,14.20
2018-06-11T08:11:20.425Z,14.50
2018-06-11T08:12:20.419Z,14.10
2018-06-11T08:13:20.465Z,13.70
2018-06-11T08:14:20.407Z,14.50
2018-06-11T08:15:20.408Z,14.50
2018-06-11T08:16:20.378Z,14.60
2018-06-11T08:17:20.369Z,14.80
2018-06-11T08:18:20.383Z,14.30
2018-06-11T08:19:20.351Z,14.00
2018-06-11T08:20:20.359Z,14.30
2018-06-11T08:21:20.327Z,14.30
2018-06-11T08:22:20.341Z,15.30
2018-06-11T08:23:20.311Z,14.40
2018-06-11T08:24:20.303Z,14.50
2018-06-11T08:25:20.296Z,14.40
2018-06-11T08:26:20.304Z,14.60
2018-06-11T08:27:20.316Z,14.40
2018-06-11T08:28:20.266Z,14.40
2018-06-11T08:29:20.258Z,14.90
2018-06-11T08:30:20.245Z,14.90
2018-06-11T08:31:20.247Z,14.60
2018-06-11T08:32:20.246Z,15.70
2018-06-11T08:33:20.230Z,15.30
2018-06-11T08:34:20.209Z,15.00
2018-06-11T08:35:20.204Z,14.70
2018-06-11T08:36:20.203Z,15.80
2018-06-11T08:37:20.182Z,15.10
2018-06-11T08:38:20.188Z,15.10
2018-06-11T08:39:20.163Z,14.70
2018-06-11T08:40:20.153Z,14.80
2018-06-11T08:41:20.147Z,13.90
2018-06-11T08:42:20.137Z,14.40
2018-06-11T08:43:20.258Z,14.70
2018-06-11T08:44:20.114Z,14.80
2018-06-11T08:45:20.108Z,14.80
2018-06-11T08:46:20.103Z,14.60
2018-06-11T08:47:20.093Z,14.90
2018-06-11T08:48:20.080Z,14.50
2018-06-11T08:49:20.085Z,15.30
2018-06-11T08:50:20.065Z,14.90
2018-06-11T08:51:20.052Z,14.90
2018-06-11T08:52:20.046Z,15.00
2018-06-11T08:53:20.038Z,15.20
2018-06-11T08:54:20.043Z,14.80
2018-06-11T08:55:20.021Z,15.00
2018-06-11T08:56:20.023Z,15.00
2018-06-11T08:57:19.997Z,14.30
2018-06-11T08:58:19.994Z,14.60
2018-06-11T08:59:19.997Z,15.10
2018-06-11T09:00:19.990Z,14.70
2018-06-11T09:01:19.963Z,14.30
2018-06-11T09:02:19.956Z,14.70
2018-06-11T09:03:19.966Z,14.80
2018-06-11T09:04:19.935Z,14.50
2018-06-11T09:05:19.945Z,14.90
2018-06-11T09:06:19.924Z,14.70
2018-06-11T09:07:19.926Z,14.10
2018-06-11T09:08:19.905Z,14.40
2018-06-11T09:09:19.893Z,14.30
2018-06-11T09:10:19.888Z,14.30
2018-06-11T09:11:19.897Z,14.00
2018-06-11T09:12:19.867Z,14.60
2018-06-11T09:13:19.860Z,14.90
2018-06-11T09:14:19.848Z,15.00
2018-06-11T09:15:19.842Z,14.00
2018-06-11T09:16:19.847Z,13.60
2018-06-11T09:17:19.872Z,14.30
2018-06-11T09:18:19.943Z,13.80
2018-06-11T09:19:19.812Z,13.40
2018-06-11T09:20:19.804Z,13.80
2018-06-11T09:21:19.809Z,13.90
2018-06-11T09:22:19.804Z,13.60
2018-06-11T09:23:19.801Z,13.50
2018-06-11T09:24:19.789Z,14.10
2018-06-11T09:25:19.759Z,13.30
2018-06-11T09:26:19.760Z,13.90
2018-06-11T09:27:19.765Z,14.50
2018-06-11T09:28:19.742Z,15.40
2018-06-11T09:29:19.741Z,14.50
2018-06-11T09:30:19.729Z,14.70
2018-06-11T09:31:19.712Z,14.40
2018-06-11T09:32:19.723Z,13.90
2018-06-11T09:33:19.701Z,14.90
2018-06-11T09:34:19.706Z,14.50
2018-06-11T09:35:19.688Z,14.40
2018-06-11T09:36:19.675Z,14.90
2018-06-11T09:37:19.690Z,14.40
2018-06-11T09:38:19.664Z,14.50
2018-06-11T09:39:19.657Z,13.50
2018-06-11T09:40:19.656Z,13.20
2018-06-11T09:41:19.638Z,13.80
2018-06-11T09:42:19.632Z,13.80
2018-06-11T09:43:19.640Z,14.20
2018-06-11T09:44:19.622Z,14.20
2018-06-11T09:45:19.611Z,13.60
2018-06-11T09:46:19.601Z,13.40
2018-06-11T09:47:19.598Z,13.50
2018-06-11T09:48:19.611Z,13.60
2018-06-11T09:49:19.606Z,13.20
2018-06-11T09:50:19.581Z,13.20
2018-06-11T09:51:19.585Z,13.40
2018-06-11T09:52:19.567Z,13.80
2018-06-11T09:53:19.566Z,14.80
2018-06-11T09:54:19.588Z,13.50
2018-06-11T09:55:19.560Z,13.00
2018-06-11T09:56:19.556Z,13.90
2018-06-11T09:57:19.545Z,13.10
2018-06-11T09:58:19.550Z,12.40
2018-06-11T09:59:19.545Z,13.30
2018-06-11T10:00:19.552Z,12.60
2018-06-11T10:01:19.552Z,12.50
2018-06-11T10:02:19.532Z,13.10
2018-06-11T10:03:19.522Z,11.40
2018-06-11T10:04:19.525Z,11.50
2018-06-11T10:05:19.527Z,12.40
2018-06-11T10:06:19.533Z,12.20
2018-06-11T10:07:19.540Z,12.90
2018-06-11T10:08:19.522Z,12.20
2018-06-11T10:09:19.525Z,12.90
2018-06-11T10:10:19.531Z,12.40
2018-06-11T10:11:19.537Z,12.40
2018-06-11T10:12:19.567Z,11.70
2018-06-11T10:13:19.510Z,11.50
2018-06-11T10:14:19.515Z,11.00
2018-06-11T10:15:19.503Z,11.00
2018-06-11T10:16:19.523Z,10.80
2018-06-11T10:17:19.506Z,12.00
2018-06-11T10:18:19.503Z,12.00
2018-06-11T10:19:19.506Z,11.80
2018-06-11T10:20:19.504Z,11.10
2018-06-11T10:21:19.519Z,12.80
2018-06-11T10:22:19.499Z,12.10
2018-06-11T10:23:19.499Z,11.90
2018-06-11T10:24:19.501Z,11.40
2018-06-11T10:25:19.503Z,11.80
2018-06-11T10:26:19.503Z,11.60
2018-06-11T10:27:19.515Z,11.30
2018-06-11T10:28:19.517Z,11.30
2018-06-11T10:29:19.500Z,11.40
2018-06-11T10:30:19.497Z,11.50
2018-06-11T10:31:19.499Z,11.70
2018-06-11T10:32:19.511Z,11.80
2018-06-11T10:33:19.515Z,11.90
2018-06-11T10:34:19.499Z,11.90
2018-06-11T10:35:19.510Z,11.10
2018-06-11T10:36:19.500Z,10.10
2018-06-11T10:37:19.494Z,10.70
2018-06-11T10:38:19.500Z,11.40
2018-06-11T10:39:19.532Z,11.90
2018-06-11T10:40:19.509Z,11.90
2018-06-11T10:41:19.494Z,11.70
2018-06-11T10:42:19.500Z,11.70
2018-06-11T10:43:19.519Z,12.50
2018-06-11T10:44:19.500Z,12.80
2018-06-11T10:45:19.503Z,12.10
2018-06-11T10:46:19.499Z,12.20
2018-06-11T10:47:19.503Z,12.90
2018-06-11T10:48:19.507Z,12.40
2018-06-11T10:49:40.537Z,12.20
2018-06-11T10:50:19.506Z,11.90
2018-06-11T10:51:19.509Z,11.80
2018-06-11T10:52:19.516Z,10.50
2018-06-11T10:53:19.509Z,12.20
2018-06-11T10:54:19.523Z,11.40
2018-06-11T10:55:19.506Z,11.80
2018-06-11T10:56:19.508Z,11.30
2018-06-11T10:57:19.513Z,11.00
2018-06-11T10:58:19.512Z,10.90
2018-06-11T10:59:19.547Z,11.30
2018-06-11T11:00:19.512Z,11.40
2018-06-11T11:01:19.513Z,12.00
2018-06-11T11:02:19.515Z,12.40
2018-06-11T11:03:19.516Z,12.30
2018-06-11T11:04:19.538Z,11.90
2018-06-11T11:05:19.516Z,11.80
2018-06-11T11:06:19.530Z,11.50
2018-06-11T11:07:19.516Z,12.80
2018-06-11T11:08:19.519Z,12.80
2018-06-11T11:09:19.541Z,13.20
2018-06-11T11:10:19.539Z,13.60
2018-06-11T11:11:19.523Z,15.40
2018-06-11T11:12:19.526Z,16.50
2018-06-11T11:13:19.532Z,16.90
2018-06-11T11:14:19.577Z,17.30
2018-06-11T11:15:19.566Z,16.10
2018-06-11T11:16:19.538Z,14.90
2018-06-11T11:17:19.550Z,13.90
2018-06-11T11:18:19.529Z,13.60
2018-06-11T11:19:19.526Z,13.80
2018-06-11T11:20:19.539Z,13.70
2018-06-11T11:21:19.546Z,14.00
2018-06-11T11:22:19.534Z,13.60
2018-06-11T11:23:19.530Z,14.40
2018-06-11T11:24:19.535Z,14.00
2018-06-11T11:25:19.530Z,13.80
2018-06-11T11:26:19.546Z,14.10
2018-06-11T11:27:19.563Z,14.10
2018-06-11T11:28:19.537Z,15.00
2018-06-11T11:29:19.546Z,14.10
2018-06-11T11:30:19.558Z,13.70
2018-06-11T11:31:19.549Z,12.20
2018-06-11T11:32:19.546Z,13.00
2018-06-11T11:33:19.549Z,12.30
2018-06-11T11:34:19.567Z,12.90
2018-06-11T11:35:19.546Z,13.10
2018-06-11T11:36:19.550Z,12.50
2018-06-11T11:37:19.553Z,11.90
2018-06-11T11:38:19.551Z,11.80
2018-06-11T11:39:19.555Z,12.70
2018-06-11T11:40:19.568Z,13.80
2018-06-11T11:41:19.559Z,13.20
2018-06-11T11:42:19.559Z,12.10
2018-06-11T11:43:19.581Z,11.90
2018-06-11T11:44:19.581Z,11.70
2018-06-11T11:45:19.567Z,11.80
2018-06-11T11:46:19.563Z,12.00
2018-06-11T11:47:19.564Z,14.20
2018-06-11T11:48:19.594Z,14.40
2018-06-11T11:49:19.564Z,15.60
2018-06-11T11:50:19.574Z,14.60
2018-06-11T11:51:19.570Z,15.60
2018-06-11T11:52:19.572Z,14.40
2018-06-11T11:53:19.589Z,14.70
2018-06-11T11:54:19.576Z,14.80
2018-06-11T11:55:19.578Z,17.70
2018-06-11T11:56:19.574Z,17.20
2018-06-11T11:57:19.572Z,16.00
2018-06-11T11:58:19.613Z,15.40
2018-06-11T11:59:19.586Z,13.80
2018-06-11T12:00:19.582Z,13.70
2018-06-11T12:01:19.588Z,13.20
2018-06-11T12:02:19.591Z,13.70
2018-06-11T12:03:19.589Z,14.70
2018-06-11T12:04:19.613Z,15.60
2018-06-11T12:05:19.598Z,16.20
2018-06-11T12:06:19.585Z,16.80
2018-06-11T12:07:19.603Z,15.90
2018-06-11T12:08:19.585Z,14.20
2018-06-11T12:09:19.607Z,14.60
2018-06-11T12:10:19.592Z,14.50
2018-06-11T12:11:19.600Z,15.50
2018-06-11T12:12:19.608Z,15.00
2018-06-11T12:13:19.596Z,14.10
2018-06-11T12:14:19.590Z,15.50
2018-06-11T12:15:19.597Z,15.00
2018-06-11T12:16:19.596Z,14.60
2018-06-11T12:17:19.627Z,13.60
2018-06-11T12:18:19.612Z,13.10
2018-06-11T12:19:19.594Z,13.20
2018-06-11T12:20:19.598Z,13.60
2018-06-11T12:21:19.630Z,14.40
2018-06-11T12:22:19.600Z,13.90
2018-06-11T12:23:19.598Z,13.90
2018-06-11T12:24:19.597Z,14.20
2018-06-11T12:25:19.600Z,14.10
2018-06-11T12:26:19.617Z,13.80
2018-06-11T12:27:19.598Z,13.60
2018-06-11T12:28:19.603Z,13.10
2018-06-11T12:29:19.618Z,13.60
2018-06-11T12:30:19.603Z,12.90
2018-06-11T12:31:19.655Z,12.60
2018-06-11T12:32:19.601Z,12.60
2018-06-11T12:33:19.601Z,12.10
2018-06-11T12:34:19.597Z,11.70
2018-06-11T12:35:19.664Z,11.40
2018-06-11T12:36:19.618Z,10.50
2018-06-11T12:37:19.603Z,11.50
2018-06-11T12:38:19.598Z,11.10
2018-06-11T12:39:19.596Z,11.30
2018-06-11T12:40:19.599Z,12.50
2018-06-11T12:41:19.616Z,11.70
2018-06-11T12:42:19.599Z,10.70
2018-06-11T12:43:19.610Z,11.30
2018-06-11T12:44:19.601Z,11.70
2018-06-11T12:45:19.595Z,12.40
2018-06-11T12:46:19.636Z,11.80
2018-06-11T12:47:19.597Z,11.00
2018-06-11T12:48:19.597Z,11.10
2018-06-11T12:49:19.597Z,10.60
2018-06-11T12:50:19.607Z,10.20
2018-06-11T12:51:19.592Z,9.60
2018-06-11T12:52:19.592Z,9.30
2018-06-11T12:53:19.613Z,9.00
2018-06-11T12:54:19.591Z,8.90